POGODA: Poland

Lotnisko: Rzeszow-Jasionka

METAR KOD: EPRZ


METAR: EPRZ 181530Z 18005KT 150V210 CAVOK 22/07 Q1021


BLOK
Pogoda METAR
181530Z
Dzien: 18, Godzina: 15:30 UTC.
18005KT
Wiatr z kierunku 180, o predkosci 9 km/h
150V210
Wiatr zmienny pomiedzy 150 i 210
CAVOK
Widzialnosc pow. 10 km, brak chmur pon. 1500 m., brak CB, brak opadow, burz i innych
22/07
Temperatura: powietrze 22°C, punkt rosy 7°C . Wilgotnosc wzgledna 32 %
Q1021
Cisnienie: 1021 hPa

Pogoda na innym lotnisku

Pogoda Gdansk-Rebiechowo WEATHER Poland  
Pogoda Katowice WEATHER Poland  
Pogoda Krakow WEATHER Poland  
Pogoda Poznan WEATHER Poland  
Pogoda Rzeszow-Jasionka WEATHER Poland  
Pogoda Szczecin WEATHER Poland  
Pogoda Warszawa-Okecie WEATHER Poland  
Pogoda Wroclaw Ii WEATHER Poland  

Pogoda w inny kraju

Strona startowa

(C) by GREGOR 2007
Ogłoszenia Towarzyskie